sensor_id;sensor_type;location;lat;lon;timestamp;P1;durP1;ratioP1;P2;durP2;ratioP2
17614;SDS011;8926;49.720;6.576;2023-01-31T00:00:00;4.77;;;2.90;;
17614;SDS011;8926;49.720;6.576;2023-01-31T00:02:25;6.37;;;3.00;;
17614;SDS011;8926;49.720;6.576;2023-01-31T00:04:51;3.47;;;2.70;;
17614;SDS011;8926;49.720;6.576;2023-01-31T00:07:16;3.60;;;2.40;;
17614;SDS011;8926;49.720;6.576;2023-01-31T00:09:41;3.20;;;2.50;;
17614;SDS011;8926;49.720;6.576;2023-01-31T00:12:06;3.10;;;2.27;;
17614;SDS011;8926;49.720;6.576;2023-01-31T00:14:32;2.43;;;2.00;;
17614;SDS011;8926;49.720;6.576;2023-01-31T00:16:57;3.43;;;2.30;;
17614;SDS011;8926;49.720;6.576;2023-01-31T00:19:22;5.67;;;3.03;;
17614;SDS011;8926;49.720;6.576;2023-01-31T00:21:47;4.87;;;2.50;;
17614;SDS011;8926;49.720;6.576;2023-01-31T00:24:13;3.00;;;2.47;;
17614;SDS011;8926;49.720;6.576;2023-01-31T00:26:39;2.70;;;2.17;;
17614;SDS011;8926;49.720;6.576;2023-01-31T00:29:05;3.80;;;2.43;;
17614;SDS011;8926;49.720;6.576;2023-01-31T00:31:31;4.10;;;2.57;;
17614;SDS011;8926;49.720;6.576;2023-01-31T00:33:57;3.40;;;2.03;;
17614;SDS011;8926;49.720;6.576;2023-01-31T00:36:25;3.43;;;2.10;;
17614;SDS011;8926;49.720;6.576;2023-01-31T00:38:53;3.37;;;2.10;;
17614;SDS011;8926;49.720;6.576;2023-01-31T00:41:21;2.83;;;2.10;;
17614;SDS011;8926;49.720;6.576;2023-01-31T00:43:48;4.03;;;2.70;;
17614;SDS011;8926;49.720;6.576;2023-01-31T00:46:14;2.67;;;1.83;;
17614;SDS011;8926;49.720;6.576;2023-01-31T00:48:40;6.27;;;2.40;;
17614;SDS011;8926;49.720;6.576;2023-01-31T00:51:06;3.27;;;2.20;;
17614;SDS011;8926;49.720;6.576;2023-01-31T00:53:32;4.70;;;2.57;;
17614;SDS011;8926;49.720;6.576;2023-01-31T00:56:05;4.20;;;2.07;;
17614;SDS011;8926;49.720;6.576;2023-01-31T00:58:33;2.63;;;2.43;;
17614;SDS011;8926;49.720;6.576;2023-01-31T01:01:12;2.53;;;2.20;;
17614;SDS011;8926;49.720;6.576;2023-01-31T01:03:39;4.47;;;2.30;;
17614;SDS011;8926;49.720;6.576;2023-01-31T01:06:06;4.33;;;2.40;;
17614;SDS011;8926;49.720;6.576;2023-01-31T01:08:32;2.03;;;1.87;;
17614;SDS011;8926;49.720;6.576;2023-01-31T01:11:06;3.67;;;2.20;;
17614;SDS011;8926;49.720;6.576;2023-01-31T01:13:33;2.27;;;2.00;;
17614;SDS011;8926;49.720;6.576;2023-01-31T01:16:02;3.20;;;2.23;;
17614;SDS011;8926;49.720;6.576;2023-01-31T01:18:32;2.53;;;2.30;;
17614;SDS011;8926;49.720;6.576;2023-01-31T01:21:06;3.80;;;1.80;;
17614;SDS011;8926;49.720;6.576;2023-01-31T01:23:32;2.10;;;1.90;;
17614;SDS011;8926;49.720;6.576;2023-01-31T01:25:58;4.93;;;2.43;;
17614;SDS011;8926;49.720;6.576;2023-01-31T01:28:23;4.23;;;2.70;;
17614;SDS011;8926;49.720;6.576;2023-01-31T01:30:48;5.73;;;2.97;;
17614;SDS011;8926;49.720;6.576;2023-01-31T01:33:14;3.70;;;2.37;;
17614;SDS011;8926;49.720;6.576;2023-01-31T01:35:39;2.70;;;2.43;;
17614;SDS011;8926;49.720;6.576;2023-01-31T01:38:04;3.60;;;2.50;;
17614;SDS011;8926;49.720;6.576;2023-01-31T01:40:33;3.40;;;2.37;;
17614;SDS011;8926;49.720;6.576;2023-01-31T01:43:00;3.23;;;2.30;;
17614;SDS011;8926;49.720;6.576;2023-01-31T01:45:25;3.93;;;2.77;;
17614;SDS011;8926;49.720;6.576;2023-01-31T01:47:51;5.00;;;2.60;;
17614;SDS011;8926;49.720;6.576;2023-01-31T01:55:34;5.53;;;2.93;;
17614;SDS011;8926;49.720;6.576;2023-01-31T01:58:04;4.10;;;2.60;;
17614;SDS011;8926;49.720;6.576;2023-01-31T02:00:33;5.70;;;2.93;;
17614;SDS011;8926;49.720;6.576;2023-01-31T02:03:00;3.53;;;2.93;;
17614;SDS011;8926;49.720;6.576;2023-01-31T02:05:35;4.03;;;3.10;;
17614;SDS011;8926;49.720;6.576;2023-01-31T02:08:05;5.00;;;3.30;;
17614;SDS011;8926;49.720;6.576;2023-01-31T02:10:32;3.23;;;2.80;;
17614;SDS011;8926;49.720;6.576;2023-01-31T02:13:03;2.83;;;2.60;;
17614;SDS011;8926;49.720;6.576;2023-01-31T02:15:29;4.80;;;2.60;;
17614;SDS011;8926;49.720;6.576;2023-01-31T02:17:55;3.07;;;2.57;;
17614;SDS011;8926;49.720;6.576;2023-01-31T02:34:58;6.70;;;3.33;;
17614;SDS011;8926;49.720;6.576;2023-01-31T02:37:48;5.07;;;3.47;;
17614;SDS011;8926;49.720;6.576;2023-01-31T02:42:56;5.33;;;3.57;;
17614;SDS011;8926;49.720;6.576;2023-01-31T02:45:55;3.87;;;2.70;;
17614;SDS011;8926;49.720;6.576;2023-01-31T02:51:04;6.03;;;3.50;;
17614;SDS011;8926;49.720;6.576;2023-01-31T02:53:39;4.50;;;3.33;;
17614;SDS011;8926;49.720;6.576;2023-01-31T02:56:11;4.93;;;4.10;;
17614;SDS011;8926;49.720;6.576;2023-01-31T02:59:05;5.00;;;3.73;;
17614;SDS011;8926;49.720;6.576;2023-01-31T03:01:45;3.30;;;3.00;;
17614;SDS011;8926;49.720;6.576;2023-01-31T03:04:14;6.07;;;3.73;;
17614;SDS011;8926;49.720;6.576;2023-01-31T03:09:12;4.77;;;3.60;;
17614;SDS011;8926;49.720;6.576;2023-01-31T03:11:57;4.67;;;3.83;;
17614;SDS011;8926;49.720;6.576;2023-01-31T03:14:31;4.17;;;3.30;;
17614;SDS011;8926;49.720;6.576;2023-01-31T03:22:27;6.13;;;3.83;;
17614;SDS011;8926;49.720;6.576;2023-01-31T03:24:59;5.40;;;3.77;;
17614;SDS011;8926;49.720;6.576;2023-01-31T03:27:29;5.57;;;3.80;;
17614;SDS011;8926;49.720;6.576;2023-01-31T03:29:55;5.57;;;4.40;;
17614;SDS011;8926;49.720;6.576;2023-01-31T03:32:33;6.60;;;4.73;;
17614;SDS011;8926;49.720;6.576;2023-01-31T03:35:06;4.80;;;3.90;;
17614;SDS011;8926;49.720;6.576;2023-01-31T03:37:40;4.57;;;3.77;;
17614;SDS011;8926;49.720;6.576;2023-01-31T03:40:17;5.33;;;4.37;;
17614;SDS011;8926;49.720;6.576;2023-01-31T03:45:27;4.77;;;3.53;;
17614;SDS011;8926;49.720;6.576;2023-01-31T03:47:59;4.77;;;3.90;;
17614;SDS011;8926;49.720;6.576;2023-01-31T03:50:38;6.47;;;4.47;;
17614;SDS011;8926;49.720;6.576;2023-01-31T03:53:08;5.27;;;3.90;;
17614;SDS011;8926;49.720;6.576;2023-01-31T03:55:40;4.37;;;3.97;;
17614;SDS011;8926;49.720;6.576;2023-01-31T03:58:11;6.60;;;4.30;;
17614;SDS011;8926;49.720;6.576;2023-01-31T04:00:39;4.53;;;4.10;;
17614;SDS011;8926;49.720;6.576;2023-01-31T04:03:13;9.00;;;4.93;;
17614;SDS011;8926;49.720;6.576;2023-01-31T04:05:43;5.73;;;4.67;;
17614;SDS011;8926;49.720;6.576;2023-01-31T04:08:09;7.20;;;4.63;;
17614;SDS011;8926;49.720;6.576;2023-01-31T04:10:34;6.57;;;4.57;;
17614;SDS011;8926;49.720;6.576;2023-01-31T04:13:00;5.43;;;4.53;;
17614;SDS011;8926;49.720;6.576;2023-01-31T04:15:26;4.40;;;4.00;;
17614;SDS011;8926;49.720;6.576;2023-01-31T04:17:51;5.07;;;4.37;;
17614;SDS011;8926;49.720;6.576;2023-01-31T04:20:16;5.40;;;4.87;;
17614;SDS011;8926;49.720;6.576;2023-01-31T04:22:42;8.50;;;5.40;;
17614;SDS011;8926;49.720;6.576;2023-01-31T04:25:07;4.83;;;4.23;;
17614;SDS011;8926;49.720;6.576;2023-01-31T04:27:33;4.17;;;3.77;;
17614;SDS011;8926;49.720;6.576;2023-01-31T04:29:58;4.93;;;4.00;;
17614;SDS011;8926;49.720;6.576;2023-01-31T04:32:23;5.73;;;4.23;;
17614;SDS011;8926;49.720;6.576;2023-01-31T04:34:48;6.13;;;4.37;;
17614;SDS011;8926;49.720;6.576;2023-01-31T04:37:14;5.33;;;4.20;;
17614;SDS011;8926;49.720;6.576;2023-01-31T04:39:39;6.77;;;4.70;;
17614;SDS011;8926;49.720;6.576;2023-01-31T04:42:04;5.57;;;4.27;;
17614;SDS011;8926;49.720;6.576;2023-01-31T04:44:30;4.57;;;4.17;;
17614;SDS011;8926;49.720;6.576;2023-01-31T04:46:55;5.43;;;4.70;;
17614;SDS011;8926;49.720;6.576;2023-01-31T04:49:20;6.60;;;4.60;;
17614;SDS011;8926;49.720;6.576;2023-01-31T04:51:46;5.37;;;4.97;;
17614;SDS011;8926;49.720;6.576;2023-01-31T04:54:11;4.97;;;4.47;;
17614;SDS011;8926;49.720;6.576;2023-01-31T04:56:36;5.63;;;4.50;;
17614;SDS011;8926;49.720;6.576;2023-01-31T04:59:02;5.70;;;4.73;;
17614;SDS011;8926;49.720;6.576;2023-01-31T05:01:27;8.53;;;5.57;;
17614;SDS011;8926;49.720;6.576;2023-01-31T05:03:53;5.80;;;5.30;;
17614;SDS011;8926;49.720;6.576;2023-01-31T05:06:18;5.53;;;5.03;;
17614;SDS011;8926;49.720;6.576;2023-01-31T05:08:43;5.07;;;4.47;;
17614;SDS011;8926;49.720;6.576;2023-01-31T05:11:09;7.23;;;5.30;;
17614;SDS011;8926;49.720;6.576;2023-01-31T05:13:35;6.40;;;5.33;;
17614;SDS011;8926;49.720;6.576;2023-01-31T05:16:05;5.97;;;5.17;;
17614;SDS011;8926;49.720;6.576;2023-01-31T05:18:35;6.43;;;5.83;;
17614;SDS011;8926;49.720;6.576;2023-01-31T05:21:00;5.60;;;5.10;;
17614;SDS011;8926;49.720;6.576;2023-01-31T05:23:27;8.17;;;6.13;;
17614;SDS011;8926;49.720;6.576;2023-01-31T05:25:53;16.07;;;9.50;;
17614;SDS011;8926;49.720;6.576;2023-01-31T05:28:18;11.93;;;8.67;;
17614;SDS011;8926;49.720;6.576;2023-01-31T05:30:43;12.57;;;9.10;;
17614;SDS011;8926;49.720;6.576;2023-01-31T05:33:09;10.70;;;8.63;;
17614;SDS011;8926;49.720;6.576;2023-01-31T05:35:34;16.47;;;10.03;;
17614;SDS011;8926;49.720;6.576;2023-01-31T05:37:59;10.30;;;7.90;;
17614;SDS011;8926;49.720;6.576;2023-01-31T05:40:25;8.67;;;7.70;;
17614;SDS011;8926;49.720;6.576;2023-01-31T05:42:57;12.87;;;9.60;;
17614;SDS011;8926;49.720;6.576;2023-01-31T05:45:26;11.03;;;8.77;;
17614;SDS011;8926;49.720;6.576;2023-01-31T05:47:52;18.90;;;10.20;;
17614;SDS011;8926;49.720;6.576;2023-01-31T05:50:18;12.93;;;9.57;;
17614;SDS011;8926;49.720;6.576;2023-01-31T05:52:50;18.63;;;10.67;;
17614;SDS011;8926;49.720;6.576;2023-01-31T05:55:17;13.23;;;9.80;;
17614;SDS011;8926;49.720;6.576;2023-01-31T05:57:42;11.33;;;9.30;;
17614;SDS011;8926;49.720;6.576;2023-01-31T06:00:08;10.10;;;8.57;;
17614;SDS011;8926;49.720;6.576;2023-01-31T06:02:33;14.70;;;9.40;;
17614;SDS011;8926;49.720;6.576;2023-01-31T06:04:59;16.83;;;11.67;;
17614;SDS011;8926;49.720;6.576;2023-01-31T06:07:24;28.73;;;12.43;;
17614;SDS011;8926;49.720;6.576;2023-01-31T06:09:49;21.37;;;11.20;;
17614;SDS011;8926;49.720;6.576;2023-01-31T06:12:15;16.43;;;10.67;;
17614;SDS011;8926;49.720;6.576;2023-01-31T06:14:40;22.20;;;12.53;;
17614;SDS011;8926;49.720;6.576;2023-01-31T06:17:05;17.97;;;10.87;;
17614;SDS011;8926;49.720;6.576;2023-01-31T06:19:31;15.23;;;9.67;;
17614;SDS011;8926;49.720;6.576;2023-01-31T06:21:56;14.90;;;9.70;;
17614;SDS011;8926;49.720;6.576;2023-01-31T06:24:21;9.87;;;8.47;;
17614;SDS011;8926;49.720;6.576;2023-01-31T06:26:47;15.37;;;9.90;;
17614;SDS011;8926;49.720;6.576;2023-01-31T06:29:12;16.50;;;9.67;;
17614;SDS011;8926;49.720;6.576;2023-01-31T06:31:37;14.53;;;9.47;;
17614;SDS011;8926;49.720;6.576;2023-01-31T06:34:03;13.77;;;9.83;;
17614;SDS011;8926;49.720;6.576;2023-01-31T06:36:31;10.23;;;8.43;;
17614;SDS011;8926;49.720;6.576;2023-01-31T06:38:58;14.60;;;10.00;;
17614;SDS011;8926;49.720;6.576;2023-01-31T06:41:23;12.27;;;8.87;;
17614;SDS011;8926;49.720;6.576;2023-01-31T06:43:49;12.63;;;9.03;;
17614;SDS011;8926;49.720;6.576;2023-01-31T06:46:15;15.80;;;10.47;;
17614;SDS011;8926;49.720;6.576;2023-01-31T06:48:41;13.03;;;9.70;;
17614;SDS011;8926;49.720;6.576;2023-01-31T06:51:06;13.93;;;9.23;;
17614;SDS011;8926;49.720;6.576;2023-01-31T06:53:31;12.23;;;8.90;;
17614;SDS011;8926;49.720;6.576;2023-01-31T06:55:57;16.50;;;10.57;;
17614;SDS011;8926;49.720;6.576;2023-01-31T06:58:22;15.50;;;10.27;;
17614;SDS011;8926;49.720;6.576;2023-01-31T07:00:48;11.87;;;9.40;;
17614;SDS011;8926;49.720;6.576;2023-01-31T07:03:13;16.13;;;10.17;;
17614;SDS011;8926;49.720;6.576;2023-01-31T07:05:38;16.27;;;10.90;;
17614;SDS011;8926;49.720;6.576;2023-01-31T07:08:04;19.67;;;11.57;;
17614;SDS011;8926;49.720;6.576;2023-01-31T07:10:29;16.10;;;10.87;;
17614;SDS011;8926;49.720;6.576;2023-01-31T07:12:55;16.40;;;10.60;;
17614;SDS011;8926;49.720;6.576;2023-01-31T07:15:20;18.77;;;10.57;;
17614;SDS011;8926;49.720;6.576;2023-01-31T07:17:45;18.67;;;11.63;;
17614;SDS011;8926;49.720;6.576;2023-01-31T07:20:11;14.83;;;10.33;;
17614;SDS011;8926;49.720;6.576;2023-01-31T07:22:37;17.93;;;11.73;;
17614;SDS011;8926;49.720;6.576;2023-01-31T07:25:02;13.40;;;10.00;;
17614;SDS011;8926;49.720;6.576;2023-01-31T07:27:28;13.20;;;10.30;;
17614;SDS011;8926;49.720;6.576;2023-01-31T07:29:53;15.83;;;10.03;;
17614;SDS011;8926;49.720;6.576;2023-01-31T07:32:18;15.53;;;10.50;;
17614;SDS011;8926;49.720;6.576;2023-01-31T07:34:44;14.13;;;9.90;;
17614;SDS011;8926;49.720;6.576;2023-01-31T07:37:10;17.63;;;11.27;;
17614;SDS011;8926;49.720;6.576;2023-01-31T07:39:35;18.40;;;11.07;;
17614;SDS011;8926;49.720;6.576;2023-01-31T07:42:00;17.07;;;10.70;;
17614;SDS011;8926;49.720;6.576;2023-01-31T07:44:26;17.43;;;10.67;;
17614;SDS011;8926;49.720;6.576;2023-01-31T07:46:51;12.87;;;9.57;;
17614;SDS011;8926;49.720;6.576;2023-01-31T07:49:18;12.37;;;10.17;;
17614;SDS011;8926;49.720;6.576;2023-01-31T07:51:44;14.50;;;10.50;;
17614;SDS011;8926;49.720;6.576;2023-01-31T07:54:09;16.30;;;11.10;;
17614;SDS011;8926;49.720;6.576;2023-01-31T07:56:35;14.43;;;10.63;;
17614;SDS011;8926;49.720;6.576;2023-01-31T07:59:01;20.03;;;10.97;;
17614;SDS011;8926;49.720;6.576;2023-01-31T08:01:26;17.60;;;11.50;;
17614;SDS011;8926;49.720;6.576;2023-01-31T08:04:12;16.63;;;11.47;;
17614;SDS011;8926;49.720;6.576;2023-01-31T08:06:40;15.23;;;10.57;;
17614;SDS011;8926;49.720;6.576;2023-01-31T08:09:07;14.77;;;9.83;;
17614;SDS011;8926;49.720;6.576;2023-01-31T08:11:32;18.20;;;10.97;;
17614;SDS011;8926;49.720;6.576;2023-01-31T08:13:57;17.07;;;10.57;;
17614;SDS011;8926;49.720;6.576;2023-01-31T08:16:23;13.30;;;9.27;;
17614;SDS011;8926;49.720;6.576;2023-01-31T08:18:48;14.40;;;9.30;;
17614;SDS011;8926;49.720;6.576;2023-01-31T08:21:14;12.10;;;9.70;;
17614;SDS011;8926;49.720;6.576;2023-01-31T08:23:40;10.83;;;8.73;;
17614;SDS011;8926;49.720;6.576;2023-01-31T08:26:17;12.93;;;9.13;;
17614;SDS011;8926;49.720;6.576;2023-01-31T08:28:45;11.13;;;9.30;;
17614;SDS011;8926;49.720;6.576;2023-01-31T08:31:13;15.03;;;9.53;;
17614;SDS011;8926;49.720;6.576;2023-01-31T08:33:40;12.70;;;8.87;;
17614;SDS011;8926;49.720;6.576;2023-01-31T08:36:09;14.03;;;8.40;;
17614;SDS011;8926;49.720;6.576;2023-01-31T08:38:42;11.17;;;9.07;;
17614;SDS011;8926;49.720;6.576;2023-01-31T08:41:08;13.43;;;9.50;;
17614;SDS011;8926;49.720;6.576;2023-01-31T08:43:35;10.47;;;8.40;;
17614;SDS011;8926;49.720;6.576;2023-01-31T08:46:01;10.80;;;9.10;;
17614;SDS011;8926;49.720;6.576;2023-01-31T08:48:27;8.60;;;7.33;;
17614;SDS011;8926;49.720;6.576;2023-01-31T08:50:52;9.17;;;7.07;;
17614;SDS011;8926;49.720;6.576;2023-01-31T08:53:18;7.90;;;6.90;;
17614;SDS011;8926;49.720;6.576;2023-01-31T08:55:43;9.27;;;7.40;;
17614;SDS011;8926;49.720;6.576;2023-01-31T08:58:08;8.53;;;6.67;;
17614;SDS011;8926;49.720;6.576;2023-01-31T09:00:34;10.27;;;7.03;;
17614;SDS011;8926;49.720;6.576;2023-01-31T09:02:59;10.93;;;7.50;;
17614;SDS011;8926;49.720;6.576;2023-01-31T09:05:26;11.50;;;7.93;;
17614;SDS011;8926;49.720;6.576;2023-01-31T09:07:53;7.70;;;6.90;;
17614;SDS011;8926;49.720;6.576;2023-01-31T09:10:19;8.23;;;5.60;;
17614;SDS011;8926;49.720;6.576;2023-01-31T09:12:46;5.30;;;4.73;;
17614;SDS011;8926;49.720;6.576;2023-01-31T09:15:11;6.70;;;6.00;;
17614;SDS011;8926;49.720;6.576;2023-01-31T09:17:37;9.77;;;6.33;;
17614;SDS011;8926;49.720;6.576;2023-01-31T09:20:03;9.53;;;7.57;;
17614;SDS011;8926;49.720;6.576;2023-01-31T09:22:33;8.63;;;7.43;;
17614;SDS011;8926;49.720;6.576;2023-01-31T09:25:00;7.97;;;6.53;;
17614;SDS011;8926;49.720;6.576;2023-01-31T09:27:26;6.60;;;5.77;;
17614;SDS011;8926;49.720;6.576;2023-01-31T09:29:52;7.57;;;6.67;;
17614;SDS011;8926;49.720;6.576;2023-01-31T09:32:18;7.03;;;6.43;;
17614;SDS011;8926;49.720;6.576;2023-01-31T09:34:44;8.10;;;7.30;;
17614;SDS011;8926;49.720;6.576;2023-01-31T09:37:11;8.67;;;7.33;;
17614;SDS011;8926;49.720;6.576;2023-01-31T09:39:36;6.93;;;6.33;;
17614;SDS011;8926;49.720;6.576;2023-01-31T09:45:05;7.83;;;6.60;;
17614;SDS011;8926;49.720;6.576;2023-01-31T09:47:37;6.43;;;5.77;;
17614;SDS011;8926;49.720;6.576;2023-01-31T09:52:43;8.97;;;6.63;;
17614;SDS011;8926;49.720;6.576;2023-01-31T09:55:18;6.67;;;5.83;;
17614;SDS011;8926;49.720;6.576;2023-01-31T10:03:47;8.70;;;6.63;;
17614;SDS011;8926;49.720;6.576;2023-01-31T10:06:21;6.87;;;6.17;;
17614;SDS011;8926;49.720;6.576;2023-01-31T10:08:56;6.10;;;5.60;;
17614;SDS011;8926;49.720;6.576;2023-01-31T10:14:08;5.23;;;4.70;;
17614;SDS011;8926;49.720;6.576;2023-01-31T10:16:41;5.83;;;5.23;;
17614;SDS011;8926;49.720;6.576;2023-01-31T10:19:14;4.70;;;4.20;;
17614;SDS011;8926;49.720;6.576;2023-01-31T10:21:44;5.10;;;4.60;;
17614;SDS011;8926;49.720;6.576;2023-01-31T10:24:17;5.20;;;4.73;;
17614;SDS011;8926;49.720;6.576;2023-01-31T10:26:52;5.53;;;5.07;;
17614;SDS011;8926;49.720;6.576;2023-01-31T10:32:01;12.37;;;8.70;;
17614;SDS011;8926;49.720;6.576;2023-01-31T10:34:29;8.83;;;7.30;;
17614;SDS011;8926;49.720;6.576;2023-01-31T10:37:06;7.17;;;6.47;;
17614;SDS011;8926;49.720;6.576;2023-01-31T10:39:37;7.10;;;6.40;;
17614;SDS011;8926;49.720;6.576;2023-01-31T10:42:22;10.57;;;7.30;;
17614;SDS011;8926;49.720;6.576;2023-01-31T10:50:18;20.20;;;11.57;;
17614;SDS011;8926;49.720;6.576;2023-01-31T10:58:31;18.50;;;11.33;;
17614;SDS011;8926;49.720;6.576;2023-01-31T11:00:58;17.03;;;10.93;;
17614;SDS011;8926;49.720;6.576;2023-01-31T11:03:23;17.13;;;11.20;;
17614;SDS011;8926;49.720;6.576;2023-01-31T11:05:50;14.73;;;9.70;;
17614;SDS011;8926;49.720;6.576;2023-01-31T11:08:39;17.83;;;11.57;;
17614;SDS011;8926;49.720;6.576;2023-01-31T11:11:17;10.67;;;9.47;;
17614;SDS011;8926;49.720;6.576;2023-01-31T11:16:37;16.50;;;11.33;;
17614;SDS011;8926;49.720;6.576;2023-01-31T11:19:13;14.67;;;9.80;;
17614;SDS011;8926;49.720;6.576;2023-01-31T11:21:46;12.80;;;9.30;;
17614;SDS011;8926;49.720;6.576;2023-01-31T11:24:15;16.50;;;10.30;;
17614;SDS011;8926;49.720;6.576;2023-01-31T11:26:49;14.87;;;9.47;;
17614;SDS011;8926;49.720;6.576;2023-01-31T11:29:17;20.37;;;10.90;;
17614;SDS011;8926;49.720;6.576;2023-01-31T11:31:49;12.27;;;9.73;;
17614;SDS011;8926;49.720;6.576;2023-01-31T11:34:20;20.47;;;10.63;;
17614;SDS011;8926;49.720;6.576;2023-01-31T11:36:46;19.13;;;11.80;;
17614;SDS011;8926;49.720;6.576;2023-01-31T11:39:25;19.00;;;11.40;;
17614;SDS011;8926;49.720;6.576;2023-01-31T11:41:52;16.53;;;11.53;;
17614;SDS011;8926;49.720;6.576;2023-01-31T11:44:19;20.23;;;11.10;;
17614;SDS011;8926;49.720;6.576;2023-01-31T11:49:42;20.93;;;13.00;;
17614;SDS011;8926;49.720;6.576;2023-01-31T11:52:20;22.10;;;12.37;;
17614;SDS011;8926;49.720;6.576;2023-01-31T11:54:53;18.53;;;11.73;;
17614;SDS011;8926;49.720;6.576;2023-01-31T11:57:23;19.57;;;11.90;;
17614;SDS011;8926;49.720;6.576;2023-01-31T11:59:51;14.87;;;11.20;;
17614;SDS011;8926;49.720;6.576;2023-01-31T12:02:35;22.07;;;13.17;;
17614;SDS011;8926;49.720;6.576;2023-01-31T12:05:13;21.13;;;11.90;;
17614;SDS011;8926;49.720;6.576;2023-01-31T12:07:45;19.57;;;11.90;;
17614;SDS011;8926;49.720;6.576;2023-01-31T12:10:24;20.47;;;11.77;;
17614;SDS011;8926;49.720;6.576;2023-01-31T12:12:53;15.57;;;10.50;;
17614;SDS011;8926;49.720;6.576;2023-01-31T12:15:22;17.77;;;10.70;;
17614;SDS011;8926;49.720;6.576;2023-01-31T12:17:48;19.07;;;11.47;;
17614;SDS011;8926;49.720;6.576;2023-01-31T12:20:47;18.83;;;11.77;;
17614;SDS011;8926;49.720;6.576;2023-01-31T12:23:47;21.80;;;11.37;;
17614;SDS011;8926;49.720;6.576;2023-01-31T12:26:12;24.03;;;10.37;;
17614;SDS011;8926;49.720;6.576;2023-01-31T12:31:39;21.00;;;10.73;;
17614;SDS011;8926;49.720;6.576;2023-01-31T12:37:00;21.17;;;11.63;;
17614;SDS011;8926;49.720;6.576;2023-01-31T12:56:25;10.47;;;7.97;;
17614;SDS011;8926;49.720;6.576;2023-01-31T12:59:04;18.23;;;10.50;;
17614;SDS011;8926;49.720;6.576;2023-01-31T13:04:48;21.10;;;10.90;;
17614;SDS011;8926;49.720;6.576;2023-01-31T13:09:49;15.90;;;9.00;;
17614;SDS011;8926;49.720;6.576;2023-01-31T13:12:18;22.53;;;11.20;;
17614;SDS011;8926;49.720;6.576;2023-01-31T13:14:51;11.07;;;8.03;;
17614;SDS011;8926;49.720;6.576;2023-01-31T13:17:23;13.87;;;8.23;;
17614;SDS011;8926;49.720;6.576;2023-01-31T13:19:56;12.17;;;8.40;;
17614;SDS011;8926;49.720;6.576;2023-01-31T13:22:31;15.47;;;10.90;;
17614;SDS011;8926;49.720;6.576;2023-01-31T13:28:01;16.20;;;10.00;;
17614;SDS011;8926;49.720;6.576;2023-01-31T13:30:35;16.47;;;9.30;;
17614;SDS011;8926;49.720;6.576;2023-01-31T13:33:17;13.93;;;8.93;;
17614;SDS011;8926;49.720;6.576;2023-01-31T13:36:00;15.33;;;9.23;;
17614;SDS011;8926;49.720;6.576;2023-01-31T13:38:40;17.23;;;9.23;;
17614;SDS011;8926;49.720;6.576;2023-01-31T13:41:08;19.30;;;9.80;;
17614;SDS011;8926;49.720;6.576;2023-01-31T13:43:43;15.80;;;9.10;;
17614;SDS011;8926;49.720;6.576;2023-01-31T13:46:08;14.57;;;9.17;;
17614;SDS011;8926;49.720;6.576;2023-01-31T13:48:38;11.80;;;9.30;;
17614;SDS011;8926;49.720;6.576;2023-01-31T13:51:11;17.10;;;10.33;;
17614;SDS011;8926;49.720;6.576;2023-01-31T13:53:47;20.47;;;10.93;;
17614;SDS011;8926;49.720;6.576;2023-01-31T13:56:19;14.40;;;10.00;;
17614;SDS011;8926;49.720;6.576;2023-01-31T13:58:47;20.67;;;11.17;;
17614;SDS011;8926;49.720;6.576;2023-01-31T14:01:22;14.00;;;10.20;;
17614;SDS011;8926;49.720;6.576;2023-01-31T14:09:31;15.30;;;9.33;;
17614;SDS011;8926;49.720;6.576;2023-01-31T14:11:59;18.77;;;9.80;;
17614;SDS011;8926;49.720;6.576;2023-01-31T14:14:54;12.40;;;8.23;;
17614;SDS011;8926;49.720;6.576;2023-01-31T14:22:18;14.47;;;9.17;;
17614;SDS011;8926;49.720;6.576;2023-01-31T14:24:59;13.93;;;8.60;;
17614;SDS011;8926;49.720;6.576;2023-01-31T14:27:32;13.57;;;8.77;;
17614;SDS011;8926;49.720;6.576;2023-01-31T14:37:52;11.00;;;9.00;;
17614;SDS011;8926;49.720;6.576;2023-01-31T14:40:28;14.60;;;8.63;;
17614;SDS011;8926;49.720;6.576;2023-01-31T14:59:20;11.47;;;8.40;;
17614;SDS011;8926;49.720;6.576;2023-01-31T15:01:47;8.73;;;7.30;;
17614;SDS011;8926;49.720;6.576;2023-01-31T15:04:15;8.33;;;6.83;;
17614;SDS011;8926;49.720;6.576;2023-01-31T15:06:47;14.60;;;9.27;;
17614;SDS011;8926;49.720;6.576;2023-01-31T15:09:16;10.43;;;8.57;;
17614;SDS011;8926;49.720;6.576;2023-01-31T15:11:51;9.63;;;7.67;;
17614;SDS011;8926;49.720;6.576;2023-01-31T15:14:34;9.87;;;8.20;;
17614;SDS011;8926;49.720;6.576;2023-01-31T15:17:06;8.90;;;8.10;;
17614;SDS011;8926;49.720;6.576;2023-01-31T15:20:20;8.57;;;7.67;;
17614;SDS011;8926;49.720;6.576;2023-01-31T15:22:38;7.80;;;6.83;;
17614;SDS011;8926;49.720;6.576;2023-01-31T15:27:57;7.00;;;6.07;;
17614;SDS011;8926;49.720;6.576;2023-01-31T15:30:24;7.77;;;6.70;;
17614;SDS011;8926;49.720;6.576;2023-01-31T15:32:57;7.03;;;6.30;;
17614;SDS011;8926;49.720;6.576;2023-01-31T15:35:33;5.90;;;5.40;;
17614;SDS011;8926;49.720;6.576;2023-01-31T15:38:05;6.20;;;5.70;;
17614;SDS011;8926;49.720;6.576;2023-01-31T15:40:40;6.70;;;5.40;;
17614;SDS011;8926;49.720;6.576;2023-01-31T15:43:21;4.40;;;4.00;;
17614;SDS011;8926;49.720;6.576;2023-01-31T15:45:47;7.73;;;5.37;;
17614;SDS011;8926;49.720;6.576;2023-01-31T15:48:16;6.63;;;5.67;;
17614;SDS011;8926;49.720;6.576;2023-01-31T15:53:24;8.07;;;5.53;;
17614;SDS011;8926;49.720;6.576;2023-01-31T15:55:53;6.70;;;5.57;;
17614;SDS011;8926;49.720;6.576;2023-01-31T15:58:25;5.87;;;5.37;;
17614;SDS011;8926;49.720;6.576;2023-01-31T16:00:56;6.23;;;5.63;;
17614;SDS011;8926;49.720;6.576;2023-01-31T16:03:27;5.30;;;4.77;;
17614;SDS011;8926;49.720;6.576;2023-01-31T16:05:55;8.37;;;5.63;;
17614;SDS011;8926;49.720;6.576;2023-01-31T16:08:39;6.10;;;5.33;;
17614;SDS011;8926;49.720;6.576;2023-01-31T16:11:06;5.90;;;4.77;;
17614;SDS011;8926;49.720;6.576;2023-01-31T16:13:34;5.60;;;5.10;;
17614;SDS011;8926;49.720;6.576;2023-01-31T16:16:05;5.90;;;4.63;;
17614;SDS011;8926;49.720;6.576;2023-01-31T16:18:35;4.47;;;4.07;;
17614;SDS011;8926;49.720;6.576;2023-01-31T16:26:58;6.10;;;5.13;;
17614;SDS011;8926;49.720;6.576;2023-01-31T16:29:40;5.50;;;5.00;;
17614;SDS011;8926;49.720;6.576;2023-01-31T16:32:14;5.87;;;4.80;;
17614;SDS011;8926;49.720;6.576;2023-01-31T16:34:43;5.10;;;4.60;;
17614;SDS011;8926;49.720;6.576;2023-01-31T16:37:15;6.97;;;4.50;;
17614;SDS011;8926;49.720;6.576;2023-01-31T16:42:40;8.37;;;5.57;;
17614;SDS011;8926;49.720;6.576;2023-01-31T16:45:23;5.53;;;4.73;;
17614;SDS011;8926;49.720;6.576;2023-01-31T16:47:52;5.03;;;4.60;;
17614;SDS011;8926;49.720;6.576;2023-01-31T16:50:22;5.30;;;4.80;;
17614;SDS011;8926;49.720;6.576;2023-01-31T16:53:05;6.20;;;5.30;;
17614;SDS011;8926;49.720;6.576;2023-01-31T16:55:38;6.00;;;5.03;;
17614;SDS011;8926;49.720;6.576;2023-01-31T16:58:03;6.40;;;5.03;;
17614;SDS011;8926;49.720;6.576;2023-01-31T17:02:56;5.33;;;4.83;;
17614;SDS011;8926;49.720;6.576;2023-01-31T17:05:36;6.00;;;4.67;;
17614;SDS011;8926;49.720;6.576;2023-01-31T17:08:05;5.53;;;4.97;;
17614;SDS011;8926;49.720;6.576;2023-01-31T17:10:39;4.23;;;3.80;;
17614;SDS011;8926;49.720;6.576;2023-01-31T17:13:06;3.40;;;3.20;;
17614;SDS011;8926;49.720;6.576;2023-01-31T17:15:39;3.53;;;3.10;;
17614;SDS011;8926;49.720;6.576;2023-01-31T17:18:04;4.87;;;4.37;;
17614;SDS011;8926;49.720;6.576;2023-01-31T17:20:30;5.90;;;4.80;;
17614;SDS011;8926;49.720;6.576;2023-01-31T17:22:55;5.97;;;4.30;;
17614;SDS011;8926;49.720;6.576;2023-01-31T17:25:23;4.83;;;4.40;;
17614;SDS011;8926;49.720;6.576;2023-01-31T17:27:51;5.43;;;4.93;;
17614;SDS011;8926;49.720;6.576;2023-01-31T17:30:18;5.10;;;4.70;;
17614;SDS011;8926;49.720;6.576;2023-01-31T17:32:44;5.53;;;5.03;;
17614;SDS011;8926;49.720;6.576;2023-01-31T17:35:14;6.33;;;5.20;;
17614;SDS011;8926;49.720;6.576;2023-01-31T17:37:42;6.47;;;5.87;;